Time;durP1;ratioP1;P1;durP2;ratioP2;P2;SDS_P1;SDS_P2;PMS_P1;PMS_P2;Temp;Humidity;BMP_temperature;BMP_pressure;BME280_temperature;BME280_humidity;BME280_pressure;Samples;Min_cycle;Max_cycle;Signal;HPM_P1;HPM_P2
2023/04/19 00:02:24;;;;;;;4.13;2.30;;;19.80;51.60;;;;;;5111540;28;20039;-72
2023/04/19 00:04:49;;;;;;;4.75;2.80;;;19.80;51.60;;;;;;5111994;28;20127;-71
2023/04/19 00:07:16;;;;;;;4.57;2.70;;;19.80;51.60;;;;;;5113352;28;20063;-72
2023/04/19 00:09:41;;;;;;;3.97;2.50;;;19.80;51.60;;;;;;5112484;28;20043;-72
2023/04/19 00:12:07;;;;;;;4.78;2.78;;;19.80;51.60;;;;;;5113321;28;20043;-73
2023/04/19 00:14:32;;;;;;;3.63;2.40;;;19.80;51.60;;;;;;5113352;28;20039;-73
2023/04/19 00:16:58;;;;;;;3.50;2.55;;;19.70;51.50;;;;;;5112724;28;20075;-73
2023/04/19 00:19:23;;;;;;;4.43;2.40;;;19.70;51.50;;;;;;5111962;28;20083;-73
2023/04/19 00:21:49;;;;;;;5.35;2.47;;;19.70;51.50;;;;;;5113217;28;20047;-73
2023/04/19 00:24:14;;;;;;;4.20;2.40;;;19.70;51.60;;;;;;5110734;28;20051;-73
2023/04/19 00:26:40;;;;;;;4.18;2.53;;;19.70;51.60;;;;;;5112024;28;20066;-73
2023/04/19 00:29:06;;;;;;;4.30;2.58;;;19.80;51.60;;;;;;5112928;28;20158;-73
2023/04/19 00:31:31;;;;;;;4.68;2.15;;;19.70;51.60;;;;;;5112528;28;20083;-73
2023/04/19 00:33:57;;;;;;;4.43;2.50;;;19.70;51.60;;;;;;5112879;28;20036;-73
2023/04/19 00:36:22;;;;;;;5.20;2.35;;;19.70;51.60;;;;;;5113448;28;20051;-73
2023/04/19 00:38:48;;;;;;;3.80;2.40;;;19.70;51.60;;;;;;5112174;28;20054;-73
2023/04/19 00:41:14;;;;;;;3.88;1.92;;;19.70;51.60;;;;;;5112562;28;20093;-73
2023/04/19 00:43:40;;;;;;;4.25;2.67;;;19.70;51.60;;;;;;5112808;28;20040;-73
2023/04/19 00:46:06;;;;;;;3.28;2.05;;;19.70;51.50;;;;;;5108708;28;20097;-73
2023/04/19 00:48:31;;;;;;;4.38;2.50;;;19.70;51.50;;;;;;5112585;28;20127;-73
2023/04/19 00:50:57;;;;;;;3.80;2.20;;;19.70;51.50;;;;;;5092823;28;20039;-73
2023/04/19 00:53:22;;;;;;;4.38;2.42;;;19.70;51.60;;;;;;5094397;28;20043;-73
2023/04/19 00:55:50;;;;;;;3.65;2.30;;;19.60;51.50;;;;;;5113143;28;20081;-74
2023/04/19 00:58:15;;;;;;;5.05;2.38;;;19.70;51.60;;;;;;5111758;28;20161;-73
2023/04/19 01:00:41;;;;;;;4.28;2.10;;;19.60;51.50;;;;;;5111852;28;20039;-73
2023/04/19 01:03:07;;;;;;;4.50;2.42;;;19.60;51.50;;;;;;5077241;28;20097;-73
2023/04/19 01:05:33;;;;;;;3.88;2.05;;;19.60;51.80;;;;;;5112014;28;20048;-73
2023/04/19 01:07:58;;;;;;;4.07;2.72;;;19.60;51.50;;;;;;5112279;28;20046;-74
2023/04/19 01:10:24;;;;;;;3.47;2.40;;;19.60;51.50;;;;;;5111229;28;20042;-73
2023/04/19 01:12:50;;;;;;;4.75;2.30;;;19.60;51.50;;;;;;5112283;28;20050;-74
2023/04/19 01:15:15;;;;;;;6.03;2.60;;;19.60;51.50;;;;;;5110920;28;20391;-73
2023/04/19 01:17:41;;;;;;;4.40;2.03;;;19.60;51.50;;;;;;5112474;28;20047;-73
2023/04/19 01:20:07;;;;;;;3.80;2.00;;;19.60;51.50;;;;;;5111468;28;20118;-73
2023/04/19 01:22:33;;;;;;;3.17;2.22;;;19.60;51.60;;;;;;5110989;28;20056;-73
2023/04/19 01:24:59;;;;;;;3.42;2.20;;;19.60;51.50;;;;;;5112356;28;20050;-73
2023/04/19 01:27:25;;;;;;;3.67;2.10;;;19.60;51.60;;;;;;5110370;28;20143;-73
2023/04/19 01:29:50;;;;;;;3.97;2.70;;;19.60;51.50;;;;;;5111282;28;20066;-73
2023/04/19 01:32:16;;;;;;;4.55;2.38;;;19.60;51.60;;;;;;5111697;28;20079;-73
2023/04/19 01:34:42;;;;;;;4.20;2.50;;;19.50;51.40;;;;;;5111318;28;20490;-73
2023/04/19 01:37:07;;;;;;;3.65;2.38;;;19.50;51.50;;;;;;5112244;28;20450;-73
2023/04/19 01:39:33;;;;;;;3.85;2.42;;;19.50;51.40;;;;;;5112298;28;20043;-73
2023/04/19 01:42:00;;;;;;;3.63;2.17;;;19.50;51.50;;;;;;5110297;28;20039;-73
2023/04/19 01:44:25;;;;;;;2.92;2.03;;;19.50;51.40;;;;;;5112762;28;20051;-73
2023/04/19 01:46:51;;;;;;;3.97;2.35;;;19.50;51.40;;;;;;5112562;28;20044;-73
2023/04/19 01:49:17;;;;;;;5.55;2.28;;;19.50;51.50;;;;;;5111149;28;20027;-73
2023/04/19 01:51:42;;;;;;;3.83;2.08;;;19.50;51.40;;;;;;5112446;28;20550;-73
2023/04/19 01:54:08;;;;;;;3.22;2.17;;;19.50;51.40;;;;;;5112024;28;20039;-73
2023/04/19 01:56:33;;;;;;;3.42;2.00;;;19.50;51.40;;;;;;5116576;28;20040;-73
2023/04/19 01:58:59;;;;;;;3.53;2.42;;;19.50;51.40;;;;;;5115771;28;20418;-73
2023/04/19 02:01:25;;;;;;;3.40;1.92;;;19.50;51.40;;;;;;5115125;28;20847;-72
2023/04/19 02:03:50;;;;;;;3.13;2.00;;;19.50;51.40;;;;;;5115041;28;20089;-73
2023/04/19 02:06:16;;;;;;;3.83;2.20;;;19.50;51.40;;;;;;5094807;28;20071;-73
2023/04/19 02:08:41;;;;;;;3.50;2.15;;;19.40;51.40;;;;;;5093880;28;20052;-73
2023/04/19 02:11:08;;;;;;;4.25;2.30;;;19.40;51.40;;;;;;5113760;28;20061;-73
2023/04/19 02:13:34;;;;;;;3.00;2.03;;;19.40;51.40;;;;;;5112905;28;20048;-73
2023/04/19 02:16:02;;;;;;;3.60;2.08;;;19.40;51.30;;;;;;5093113;28;20044;-73
2023/04/19 02:18:30;;;;;;;3.60;2.40;;;19.40;51.30;;;;;;5095553;28;20036;-72
2023/04/19 02:20:57;;;;;;;3.67;2.13;;;19.40;51.30;;;;;;5094948;28;20127;-73
2023/04/19 02:23:22;;;;;;;3.55;2.28;;;19.40;51.30;;;;;;5092996;28;20056;-73
2023/04/19 02:25:48;;;;;;;3.35;2.15;;;19.40;51.30;;;;;;5110395;28;20043;-73
2023/04/19 02:28:13;;;;;;;3.85;2.20;;;19.40;51.30;;;;;;5115388;28;20052;-72
2023/04/19 02:30:39;;;;;;;3.22;2.45;;;19.40;51.30;;;;;;5114666;28;20039;-73
2023/04/19 02:33:05;;;;;;;3.78;2.33;;;19.40;51.30;;;;;;5114105;28;20101;-72
2023/04/19 02:35:30;;;;;;;3.85;2.05;;;19.40;51.20;;;;;;5113886;28;20031;-73
2023/04/19 02:37:56;;;;;;;3.47;2.25;;;19.40;51.20;;;;;;5114588;28;20114;-73
2023/04/19 02:40:22;;;;;;;3.65;2.00;;;19.40;51.20;;;;;;5115414;28;20066;-73
2023/04/19 02:42:48;;;;;;;4.07;2.40;;;19.40;51.10;;;;;;5115661;28;20089;-73
2023/04/19 02:45:13;;;;;;;3.55;2.20;;;19.40;51.10;;;;;;5114066;28;20036;-72
2023/04/19 02:47:39;;;;;;;4.43;2.00;;;19.40;51.10;;;;;;5115562;28;20040;-73
2023/04/19 02:50:05;;;;;;;3.22;2.00;;;19.40;51.10;;;;;;5113224;28;20044;-73
2023/04/19 02:52:31;;;;;;;4.20;2.20;;;19.40;51.10;;;;;;5114538;28;20047;-72
2023/04/19 02:54:56;;;;;;;3.22;2.20;;;19.40;51.00;;;;;;5114903;28;20031;-72
2023/04/19 02:57:22;;;;;;;3.78;2.30;;;19.40;51.00;;;;;;5114919;28;20105;-72
2023/04/19 02:59:47;;;;;;;3.08;1.90;;;19.40;51.00;;;;;;5114405;28;20043;-73
2023/04/19 03:02:13;;;;;;;3.15;1.83;;;19.50;51.00;;;;;;5114710;28;20042;-72
2023/04/19 03:04:38;;;;;;;3.50;2.03;;;19.50;51.10;;;;;;5109596;28;20411;-72
2023/04/19 03:07:05;;;;;;;3.40;2.22;;;19.50;51.00;;;;;;5094575;28;20047;-72
2023/04/19 03:09:30;;;;;;;2.53;1.90;;;19.50;51.10;;;;;;5093461;28;20060;-72
2023/04/19 03:11:56;;;;;;;3.58;2.17;;;19.50;51.10;;;;;;5095485;28;20083;-73
2023/04/19 03:14:21;;;;;;;4.30;2.30;;;19.60;51.10;;;;;;5113104;28;20541;-72
2023/04/19 03:16:47;;;;;;;3.45;1.85;;;19.60;51.10;;;;;;5094334;28;20403;-72
2023/04/19 03:19:12;;;;;;;4.22;2.13;;;19.60;51.10;;;;;;5093003;28;20044;-72
2023/04/19 03:21:38;;;;;;;3.95;2.10;;;19.60;51.10;;;;;;5092736;28;20051;-72
2023/04/19 03:24:04;;;;;;;3.10;2.10;;;19.60;51.10;;;;;;5094254;28;20048;-72
2023/04/19 03:26:30;;;;;;;2.85;1.98;;;19.70;51.20;;;;;;5093448;28;20040;-72
2023/04/19 03:28:55;;;;;;;3.35;1.75;;;19.70;51.20;;;;;;5092526;28;20048;-72
2023/04/19 03:31:21;;;;;;;3.65;2.15;;;19.70;51.20;;;;;;5093998;28;20093;-72
2023/04/19 03:33:46;;;;;;;5.78;2.03;;;19.70;51.20;;;;;;5101451;28;20085;-72
2023/04/19 03:36:12;;;;;;;4.07;2.10;;;19.70;51.10;;;;;;5096511;28;20067;-72
2023/04/19 03:38:38;;;;;;;3.17;1.98;;;19.70;51.10;;;;;;5093898;28;20123;-72
2023/04/19 03:41:03;;;;;;;2.97;2.08;;;19.70;51.10;;;;;;5093039;28;20032;-72
2023/04/19 03:43:29;;;;;;;2.92;2.10;;;19.80;51.80;;;;;;5094039;28;20048;-72
2023/04/19 03:45:54;;;;;;;3.50;1.90;;;19.80;51.20;;;;;;5093661;28;20040;-72
2023/04/19 03:48:20;;;;;;;3.67;2.10;;;19.80;51.10;;;;;;5074912;28;20040;-72
2023/04/19 03:50:45;;;;;;;2.67;1.95;;;19.80;51.10;;;;;;5093352;28;20496;-72
2023/04/19 03:53:11;;;;;;;2.92;1.95;;;19.90;51.10;;;;;;5093291;28;20047;-72
2023/04/19 03:55:36;;;;;;;3.40;1.85;;;19.90;51.10;;;;;;5092908;28;20044;-72
2023/04/19 03:58:02;;;;;;;4.00;1.90;;;19.90;51.00;;;;;;5093319;28;20058;-72
2023/04/19 04:00:28;;;;;;;3.25;1.90;;;19.90;51.10;;;;;;5093499;28;20166;-71
2023/04/19 04:02:53;;;;;;;2.55;1.83;;;19.90;51.00;;;;;;5092379;28;20040;-72
2023/04/19 04:05:19;;;;;;;3.63;2.08;;;19.90;51.00;;;;;;5091927;28;20062;-71
2023/04/19 04:07:44;;;;;;;2.97;1.80;;;19.90;51.00;;;;;;5092726;28;20072;-72
2023/04/19 04:10:10;;;;;;;3.47;1.77;;;19.90;51.00;;;;;;5093030;28;20432;-70
2023/04/19 04:12:35;;;;;;;2.78;1.70;;;19.90;51.00;;;;;;5093472;28;20589;-71
2023/04/19 04:15:01;;;;;;;2.83;1.70;;;19.90;51.00;;;;;;5094458;28;20093;-70
2023/04/19 04:17:27;;;;;;;3.17;1.73;;;20.00;51.00;;;;;;5112801;28;20050;-70
2023/04/19 04:19:52;;;;;;;3.55;1.90;;;20.00;50.90;;;;;;5113364;28;20482;-70
2023/04/19 04:22:18;;;;;;;3.78;2.00;;;20.00;50.90;;;;;;5111138;28;20483;-70
2023/04/19 04:24:43;;;;;;;3.45;2.00;;;20.00;50.90;;;;;;5113309;28;20545;-70
2023/04/19 04:27:09;;;;;;;3.22;1.70;;;20.00;50.90;;;;;;5113051;28;20039;-70
2023/04/19 04:29:38;;;;;;;3.85;2.00;;;20.00;50.90;;;;;;5112282;28;20040;-70
2023/04/19 04:32:07;;;;;;;2.78;1.80;;;20.00;50.90;;;;;;5112856;28;20471;-70
2023/04/19 04:34:34;;;;;;;3.33;2.13;;;20.00;50.90;;;;;;5112932;27;20109;-70
2023/04/19 04:37:00;;;;;;;4.10;2.00;;;20.00;50.80;;;;;;5112046;28;20380;-71
2023/04/19 04:39:25;;;;;;;3.15;1.80;;;20.00;50.80;;;;;;5099810;28;20042;-70
2023/04/19 04:41:52;;;;;;;3.33;1.95;;;20.00;50.80;;;;;;5113114;28;20084;-70
2023/04/19 04:44:19;;;;;;;3.80;1.80;;;20.00;50.80;;;;;;5099706;28;20036;-70
2023/04/19 04:46:44;;;;;;;3.80;1.70;;;20.10;50.80;;;;;;5092064;28;20071;-70
2023/04/19 04:49:10;;;;;;;2.33;1.70;;;20.10;50.80;;;;;;5091834;28;20071;-71
2023/04/19 04:51:36;;;;;;;3.95;1.70;;;20.00;50.70;;;;;;5090789;28;20092;-70
2023/04/19 04:54:02;;;;;;;2.58;1.75;;;20.10;50.80;;;;;;5091986;28;20066;-70
2023/04/19 04:56:27;;;;;;;3.72;1.60;;;20.10;50.80;;;;;;5105170;28;20479;-71
2023/04/19 04:58:53;;;;;;;3.65;1.83;;;20.10;50.70;;;;;;5104295;28;20093;-71
2023/04/19 05:01:20;;;;;;;4.78;1.60;;;20.10;50.70;;;;;;5092298;28;20130;-71
2023/04/19 05:03:45;;;;;;;2.35;1.73;;;20.10;51.40;;;;;;5092437;28;20546;-70
2023/04/19 05:06:11;;;;;;;2.63;1.63;;;20.10;50.70;;;;;;5090354;28;20173;-71
2023/04/19 05:08:36;;;;;;;3.00;1.77;;;20.10;50.60;;;;;;5096268;28;20043;-71
2023/04/19 05:11:02;;;;;;;2.60;1.83;;;20.10;50.60;;;;;;5112126;28;20054;-72
2023/04/19 05:13:28;;;;;;;2.60;1.70;;;20.10;50.60;;;;;;5112622;28;20055;-71
2023/04/19 05:15:53;;;;;;;2.80;1.73;;;20.10;50.40;;;;;;5112585;28;20040;-71
2023/04/19 05:18:19;;;;;;;2.83;1.60;;;20.10;50.40;;;;;;5111382;28;20040;-71
2023/04/19 05:20:45;;;;;;;2.53;1.58;;;20.10;50.40;;;;;;5111707;28;20040;-71
2023/04/19 05:23:11;;;;;;;4.00;2.38;;;20.10;50.30;;;;;;5102727;28;20056;-71
2023/04/19 05:25:36;;;;;;;3.08;1.75;;;20.20;50.40;;;;;;5091467;28;20042;-71
2023/04/19 05:28:02;;;;;;;3.13;1.63;;;20.20;50.40;;;;;;5090479;28;20055;-71
2023/04/19 05:30:28;;;;;;;2.53;1.60;;;20.20;50.40;;;;;;5095607;28;20032;-71
2023/04/19 05:32:53;;;;;;;2.38;1.70;;;20.20;50.40;;;;;;5095514;28;20518;-71
2023/04/19 05:35:19;;;;;;;3.38;1.50;;;20.20;50.40;;;;;;5112608;28;20535;-71
2023/04/19 05:37:45;;;;;;;3.72;1.73;;;20.20;50.50;;;;;;5117030;28;20574;-71
2023/04/19 05:40:12;;;;;;;2.90;1.63;;;20.20;50.40;;;;;;5115740;28;20031;-71
2023/04/19 05:42:38;;;;;;;2.67;1.48;;;20.20;50.40;;;;;;5115598;28;20054;-71
2023/04/19 05:45:05;;;;;;;2.58;1.55;;;20.20;50.40;;;;;;5115646;28;20397;-72
2023/04/19 05:47:31;;;;;;;2.17;1.57;;;20.20;50.40;;;;;;5116009;28;20047;-71
2023/04/19 05:49:56;;;;;;;3.60;1.80;;;20.20;50.40;;;;;;5115647;28;20043;-71
2023/04/19 05:52:22;;;;;;;2.30;1.55;;;20.20;50.40;;;;;;5116322;28;20479;-71
2023/04/19 05:54:47;;;;;;;2.70;1.60;;;20.20;50.40;;;;;;5115491;28;20143;-71
2023/04/19 05:57:13;;;;;;;3.00;1.67;;;20.20;50.40;;;;;;5114897;28;20043;-72
2023/04/19 05:59:39;;;;;;;3.33;1.98;;;20.20;50.50;;;;;;5114728;28;20399;-72
2023/04/19 06:02:05;;;;;;;2.70;1.50;;;20.20;50.50;;;;;;5115445;28;20039;-72
2023/04/19 06:04:30;;;;;;;2.72;1.60;;;20.20;50.50;;;;;;5114414;28;20454;-72
2023/04/19 06:06:56;;;;;;;3.05;1.67;;;20.20;50.50;;;;;;5115819;28;20071;-72
2023/04/19 06:09:21;;;;;;;2.58;1.50;;;20.20;50.50;;;;;;5114968;28;20509;-71
2023/04/19 06:11:47;;;;;;;2.67;1.70;;;20.20;51.20;;;;;;5116270;28;20100;-71
2023/04/19 06:14:13;;;;;;;3.13;1.88;;;20.30;50.60;;;;;;5114290;28;20040;-72
2023/04/19 06:16:39;;;;;;;2.42;1.50;;;20.30;50.60;;;;;;5115479;28;20429;-72
2023/04/19 06:19:06;;;;;;;2.83;1.80;;;20.30;50.50;;;;;;5114353;28;20040;-72
2023/04/19 06:21:32;;;;;;;2.25;1.60;;;20.30;50.40;;;;;;5114893;28;20126;-70
2023/04/19 06:23:58;;;;;;;3.33;1.52;;;20.30;50.40;;;;;;5114505;28;20107;-72
2023/04/19 06:26:23;;;;;;;2.80;1.55;;;20.30;50.40;;;;;;5114796;28;20040;-73
2023/04/19 06:28:49;;;;;;;3.25;1.60;;;20.30;50.30;;;;;;5112189;28;20082;-73
2023/04/19 06:31:14;;;;;;;3.42;1.63;;;20.30;50.30;;;;;;5113939;28;20079;-73
2023/04/19 06:33:40;;;;;;;3.05;1.65;;;20.30;50.00;;;;;;5112782;28;20054;-73
2023/04/19 06:36:06;;;;;;;3.30;1.65;;;20.30;50.00;;;;;;5113509;28;20040;-73
2023/04/19 06:38:31;;;;;;;2.65;1.58;;;20.40;50.10;;;;;;5114429;28;20044;-73
2023/04/19 06:40:57;;;;;;;3.13;1.73;;;20.40;50.10;;;;;;5113572;28;20032;-75
2023/04/19 06:43:23;;;;;;;2.75;1.55;;;20.40;50.10;;;;;;5113299;28;20166;-76
2023/04/19 06:45:48;;;;;;;3.60;1.70;;;20.40;50.10;;;;;;5113721;28;20043;-75
2023/04/19 06:48:14;;;;;;;3.28;1.73;;;20.40;50.20;;;;;;5113892;28;20414;-76
2023/04/19 06:50:40;;;;;;;6.63;1.90;;;20.40;50.20;;;;;;5113181;28;20434;-75
2023/04/19 06:53:05;;;;;;;4.38;1.58;;;20.40;50.20;;;;;;5113922;28;20122;-75
2023/04/19 06:55:31;;;;;;;5.68;1.70;;;20.50;50.40;;;;;;5113740;28;20079;-74
2023/04/19 06:57:56;;;;;;;2.95;1.58;;;20.50;50.40;;;;;;5113000;28;20044;-74
2023/04/19 07:00:22;;;;;;;4.38;1.48;;;20.50;50.40;;;;;;5112538;28;20040;-75
2023/04/19 07:02:49;;;;;;;3.80;1.67;;;20.50;50.40;;;;;;5113995;28;20051;-74
2023/04/19 07:05:15;;;;;;;4.43;1.52;;;20.50;50.40;;;;;;5111361;28;20047;-73
2023/04/19 07:07:40;;;;;;;5.38;1.90;;;20.50;50.30;;;;;;5112976;28;20455;-74
2023/04/19 07:10:07;;;;;;;2.30;1.42;;;20.50;50.30;;;;;;5112915;28;20458;-72
2023/04/19 07:12:33;;;;;;;5.55;1.70;;;20.50;50.40;;;;;;5092757;28;20083;-72
2023/04/19 07:14:59;;;;;;;4.38;1.55;;;20.50;50.30;;;;;;5093373;28;20076;-71
2023/04/19 07:17:24;;;;;;;4.88;1.48;;;20.50;50.30;;;;;;5091890;28;20040;-76
2023/04/19 07:19:50;;;;;;;3.28;1.58;;;20.60;50.40;;;;;;5092638;28;20429;-75
2023/04/19 07:22:15;;;;;;;4.33;1.63;;;20.60;50.40;;;;;;5056063;28;1062904;-76
2023/04/19 07:24:43;;;;;;;4.25;1.90;;;20.60;50.50;;;;;;5093426;28;20348;-76
2023/04/19 07:27:08;;;;;;;6.83;1.40;;;20.60;50.50;;;;;;5093572;28;20129;-74
2023/04/19 07:29:34;;;;;;;4.78;1.88;;;20.60;50.50;;;;;;5097743;28;20344;-73
2023/04/19 07:32:00;;;;;;;3.65;1.40;;;20.60;50.50;;;;;;5113561;28;20047;-74
2023/04/19 07:34:26;;;;;;;4.05;1.48;;;20.60;50.50;;;;;;5110580;28;20032;-75
2023/04/19 07:36:51;;;;;;;3.78;1.58;;;20.60;50.50;;;;;;5092873;28;20050;-74
2023/04/19 07:39:17;;;;;;;5.15;1.70;;;20.60;50.50;;;;;;5092783;28;20047;-74
2023/04/19 07:41:43;;;;;;;6.80;1.98;;;20.60;50.50;;;;;;5093835;28;20553;-74
2023/04/19 07:44:10;;;;;;;3.90;1.48;;;20.60;50.40;;;;;;5093587;28;20044;-74
2023/04/19 07:46:35;;;;;;;5.75;1.60;;;20.60;50.40;;;;;;5092079;28;20398;-68
2023/04/19 07:49:01;;;;;;;3.72;1.90;;;20.60;50.30;;;;;;5092232;28;20127;-72
2023/04/19 07:51:27;;;;;;;3.95;1.42;;;20.60;50.30;;;;;;5104230;28;20483;-75
2023/04/19 07:53:53;;;;;;;4.82;1.80;;;20.60;50.30;;;;;;5093220;28;20056;-75
2023/04/19 07:56:19;;;;;;;4.80;1.48;;;20.60;50.20;;;;;;5092098;28;20044;-77
2023/04/19 07:58:44;;;;;;;4.75;1.88;;;20.60;50.10;;;;;;5092530;28;20062;-77
2023/04/19 08:01:10;;;;;;;3.90;1.20;;;20.60;50.00;;;;;;5092152;28;20044;-77
2023/04/19 08:03:36;;;;;;;3.50;1.30;;;20.70;50.00;;;;;;5092208;28;20043;-76
2023/04/19 08:06:07;;;;;;;4.05;1.35;;;20.70;49.90;;;;;;5093341;28;20044;-76
2023/04/19 08:08:32;;;;;;;4.93;1.40;;;20.70;49.90;;;;;;5092491;28;20074;-76
2023/04/19 08:10:58;;;;;;;4.85;1.38;;;20.70;49.80;;;;;;5093126;28;20089;-76
2023/04/19 08:13:24;;;;;;;4.72;1.48;;;20.70;49.80;;;;;;5092296;28;20052;-77
2023/04/19 08:15:50;;;;;;;2.80;1.27;;;20.70;49.80;;;;;;5094791;28;20036;-76
2023/04/19 08:18:15;;;;;;;3.20;1.20;;;20.80;49.80;;;;;;5092651;28;20055;-70
2023/04/19 08:20:45;;;;;;;2.58;1.30;;;20.80;49.70;;;;;;5092922;28;20047;-76
2023/04/19 08:23:11;;;;;;;2.75;1.30;;;20.80;49.60;;;;;;5091835;28;20063;-76
2023/04/19 08:25:37;;;;;;;5.22;1.38;;;20.80;49.50;;;;;;5093025;28;20048;-76
2023/04/19 08:28:03;;;;;;;2.95;1.02;;;20.80;49.30;;;;;;5111409;28;20115;-76
2023/04/19 08:30:28;;;;;;;3.08;1.50;;;20.80;49.20;;;;;;5102156;28;20036;-76
2023/04/19 08:32:54;;;;;;;3.03;1.27;;;20.80;49.20;;;;;;5092992;28;20044;-76
2023/04/19 08:35:20;;;;;;;3.42;1.30;;;20.80;49.10;;;;;;5092059;28;20040;-76
2023/04/19 08:37:47;;;;;;;2.85;1.20;;;20.80;49.00;;;;;;5091768;28;20047;-76
2023/04/19 08:40:13;;;;;;;3.03;1.40;;;20.90;49.00;;;;;;5092798;28;20048;-76
2023/04/19 08:42:39;;;;;;;4.65;1.48;;;20.90;49.00;;;;;;5090826;28;20044;-76
2023/04/19 08:45:05;;;;;;;2.63;1.20;;;20.90;48.90;;;;;;5099172;28;20093;-76
2023/04/19 08:47:32;;;;;;;2.10;1.38;;;20.90;48.90;;;;;;5111961;28;20055;-76
2023/04/19 08:49:57;;;;;;;4.13;1.23;;;20.90;48.80;;;;;;5107711;28;20044;-77
2023/04/19 08:52:23;;;;;;;1.63;1.17;;;20.90;48.80;;;;;;5091164;28;20074;-76
2023/04/19 08:54:48;;;;;;;2.22;1.33;;;20.90;48.70;;;;;;5074902;28;20036;-76
2023/04/19 08:57:14;;;;;;;2.75;1.20;;;20.90;48.60;;;;;;5072927;28;20618;-76
2023/04/19 08:59:40;;;;;;;2.45;1.25;;;20.90;48.50;;;;;;5091653;28;20475;-76
2023/04/19 09:02:05;;;;;;;4.10;1.25;;;20.90;48.40;;;;;;5091938;28;20040;-76
2023/04/19 09:04:31;;;;;;;3.10;1.27;;;20.90;48.30;;;;;;5091735;28;20086;-76
2023/04/19 09:06:56;;;;;;;3.22;1.30;;;21.00;48.30;;;;;;5110261;28;20483;-76
2023/04/19 09:09:27;;;;;;;2.65;1.13;;;20.90;48.10;;;;;;5112913;28;20036;-76
2023/04/19 09:11:53;;;;;;;2.17;1.38;;;21.00;48.10;;;;;;5111706;28;20508;-76
2023/04/19 09:14:19;;;;;;;3.75;1.58;;;21.00;48.10;;;;;;5112588;28;20039;-76
2023/04/19 09:16:45;;;;;;;4.55;1.33;;;20.90;48.00;;;;;;5112843;28;20043;-76
2023/04/19 09:19:11;;;;;;;2.30;1.23;;;21.00;48.10;;;;;;5110189;28;20482;-76
2023/04/19 09:21:37;;;;;;;2.20;1.23;;;21.00;47.90;;;;;;5112041;28;20044;-76
2023/04/19 09:24:03;;;;;;;3.28;1.17;;;21.00;47.90;;;;;;5112645;28;20039;-76
2023/04/19 09:26:28;;;;;;;3.13;1.10;;;21.00;47.80;;;;;;5111901;28;20039;-76
2023/04/19 09:29:06;;;;;;;1.88;1.00;;;21.00;47.70;;;;;;5111626;28;20490;-75
2023/04/19 09:31:35;;;;;;;2.92;1.20;;;21.00;47.60;;;;;;5110265;28;20129;-75
2023/04/19 09:34:17;;;;;;;2.45;1.25;;;21.00;47.60;;;;;;5110777;28;20114;-76
2023/04/19 09:36:43;;;;;;;3.25;1.00;;;21.00;47.50;;;;;;5112251;28;20525;-75
2023/04/19 09:39:09;;;;;;;1.75;1.13;;;21.00;47.50;;;;;;5111493;28;20048;-76
2023/04/19 09:41:36;;;;;;;2.63;1.20;;;21.00;47.40;;;;;;5112440;28;20043;-76
2023/04/19 09:44:14;;;;;;;2.28;1.30;;;21.00;47.30;;;;;;5111020;28;20039;-76
2023/04/19 09:46:41;;;;;;;3.20;1.25;;;21.00;47.20;;;;;;5110638;28;20048;-76
2023/04/19 09:49:14;;;;;;;3.45;1.25;;;21.00;47.20;;;;;;5106531;28;20079;-76
2023/04/19 09:51:40;;;;;;;3.35;1.20;;;21.00;47.00;;;;;;5092213;28;20048;-76
2023/04/19 09:54:06;;;;;;;2.72;1.25;;;21.00;47.10;;;;;;5089697;28;20043;-76
2023/04/19 09:56:31;;;;;;;3.03;1.30;;;21.00;47.00;;;;;;5074285;28;20048;-76
2023/04/19 09:58:57;;;;;;;2.45;1.10;;;21.00;47.00;;;;;;5053835;28;20399;-76
2023/04/19 10:01:22;;;;;;;3.10;1.00;;;21.00;46.90;;;;;;5069871;28;20769;-76
2023/04/19 10:03:48;;;;;;;2.50;1.20;;;21.00;46.80;;;;;;5072830;28;20040;-76
2023/04/19 10:06:16;;;;;;;2.60;1.20;;;21.00;46.70;;;;;;5091792;28;20044;-76
2023/04/19 10:08:44;;;;;;;2.35;1.38;;;21.00;46.70;;;;;;5089999;28;20491;-76
2023/04/19 10:11:09;;;;;;;2.72;1.05;;;21.00;46.60;;;;;;5091515;28;20044;-76
2023/04/19 10:13:36;;;;;;;2.08;0.95;;;21.00;46.60;;;;;;5056240;28;20403;-76
2023/04/19 10:16:02;;;;;;;2.10;1.00;;;21.00;46.60;;;;;;5075699;28;20483;-71
2023/04/19 10:18:27;;;;;;;5.45;1.60;;;21.00;46.40;;;;;;5094274;28;20745;-73
2023/04/19 10:21:00;;;;;;;5.93;1.45;;;21.00;45.70;;;;;;5076826;28;20043;-74
2023/04/19 10:23:26;;;;;;;4.40;1.20;;;21.00;44.70;;;;;;5094030;28;20056;-74
2023/04/19 10:25:56;;;;;;;3.35;1.08;;;20.90;44.30;;;;;;5112573;28;20043;-75
2023/04/19 10:28:21;;;;;;;2.08;1.20;;;20.90;44.00;;;;;;5115171;28;20089;-75
2023/04/19 10:31:03;;;;;;;3.63;1.10;;;20.90;44.10;;;;;;5114350;28;20031;-75
2023/04/19 10:33:30;;;;;;;2.10;0.95;;;20.90;44.10;;;;;;5114384;28;20047;-75
2023/04/19 10:35:57;;;;;;;2.43;1.10;;;20.90;44.20;;;;;;5114265;28;20372;-75
2023/04/19 10:38:43;;;;;;;3.25;1.08;;;20.90;44.10;;;;;;5115762;28;20118;-75
2023/04/19 10:41:13;;;;;;;3.53;1.17;;;20.90;43.90;;;;;;5114641;28;20401;-75
2023/04/19 10:43:46;;;;;;;3.28;1.17;;;20.90;44.00;;;;;;5114714;28;20044;-75
2023/04/19 10:46:20;;;;;;;2.33;1.15;;;20.90;44.00;;;;;;5113742;28;20096;-75
2023/04/19 10:48:59;;;;;;;3.30;1.05;;;20.90;43.90;;;;;;5113348;28;20050;-75
2023/04/19 10:51:32;;;;;;;2.28;1.20;;;20.90;44.10;;;;;;5109855;28;20495;-75
2023/04/19 10:53:58;;;;;;;2.78;1.33;;;20.90;44.10;;;;;;5097758;28;20043;-74
2023/04/19 10:56:33;;;;;;;2.72;1.10;;;20.90;44.20;;;;;;5113399;28;20067;-74
2023/04/19 11:01:46;;;;;;;3.20;1.17;;;20.90;44.20;;;;;;5113889;28;20841;-73
2023/04/19 11:04:19;;;;;;;2.28;1.10;;;20.90;44.20;;;;;;5101222;28;20498;-73
2023/04/19 11:06:51;;;;;;;4.60;1.40;;;20.90;44.70;;;;;;5094159;28;20395;-74
2023/04/19 11:09:34;;;;;;;3.58;1.05;;;20.90;45.00;;;;;;5105117;28;20052;-75
2023/04/19 11:12:06;;;;;;;7.28;1.27;;;20.90;44.90;;;;;;5093207;28;20544;-77
2023/04/19 11:14:34;;;;;;;4.32;1.33;;;20.90;44.80;;;;;;5103399;28;20032;-76
2023/04/19 11:17:01;;;;;;;2.47;1.38;;;20.90;44.80;;;;;;5093531;28;20056;-77
2023/04/19 11:19:27;;;;;;;5.55;1.60;;;20.90;44.90;;;;;;5094199;28;20046;-77
2023/04/19 11:21:53;;;;;;;5.65;1.48;;;20.90;45.00;;;;;;5094214;28;20134;-77
2023/04/19 11:24:19;;;;;;;3.22;1.50;;;21.00;45.20;;;;;;5075246;28;20044;-77
2023/04/19 11:26:45;;;;;;;5.72;1.70;;;20.90;45.90;;;;;;5091847;28;20046;-77
2023/04/19 11:29:11;;;;;;;2.47;1.50;;;21.00;45.30;;;;;;5094037;28;20044;-77
2023/04/19 11:31:37;;;;;;;5.18;1.75;;;21.00;45.40;;;;;;5075536;28;20049;-77
2023/04/19 11:34:03;;;;;;;8.02;1.60;;;20.90;45.40;;;;;;5092742;28;20051;-77
2023/04/19 11:36:30;;;;;;;3.42;1.50;;;21.00;45.40;;;;;;5094152;28;20043;-74
2023/04/19 11:38:56;;;;;;;3.50;1.52;;;20.90;46.10;;;;;;5092794;28;20505;-75
2023/04/19 11:41:22;;;;;;;2.72;1.35;;;20.90;45.30;;;;;;5103683;28;20040;-75
2023/04/19 11:43:47;;;;;;;6.22;1.27;;;20.90;45.20;;;;;;5092913;28;20051;-75
2023/04/19 11:46:13;;;;;;;4.22;1.60;;;20.90;45.10;;;;;;5108025;28;20031;-74
2023/04/19 11:48:50;;;;;;;5.38;1.20;;;21.00;45.70;;;;;;5114179;28;20047;-74
2023/04/19 11:51:16;;;;;;;3.72;1.38;;;20.90;44.80;;;;;;5113400;28;20043;-73
2023/04/19 11:53:41;;;;;;;3.03;1.20;;;20.90;44.60;;;;;;5112249;28;20050;-73
2023/04/19 11:56:07;;;;;;;3.72;1.20;;;20.90;44.40;;;;;;5113595;28;20430;-74
2023/04/19 11:58:43;;;;;;;3.95;1.35;;;20.90;44.30;;;;;;5113047;28;20491;-71
2023/04/19 12:01:19;;;;;;;4.13;1.33;;;20.90;44.30;;;;;;5111739;28;20118;-72
2023/04/19 12:03:51;;;;;;;1.83;1.20;;;20.90;44.20;;;;;;5113931;28;20039;-72
2023/04/19 12:06:27;;;;;;;3.03;1.30;;;20.90;44.30;;;;;;5112487;28;20481;-71
2023/04/19 12:08:53;;;;;;;4.25;1.33;;;20.90;44.20;;;;;;5113973;28;20044;-72
2023/04/19 12:11:21;;;;;;;2.78;1.20;;;20.90;44.20;;;;;;5112080;28;20044;-73
2023/04/19 12:13:47;;;;;;;2.80;1.20;;;21.00;44.40;;;;;;5111619;28;20089;-72
2023/04/19 12:16:13;;;;;;;4.40;1.35;;;20.90;44.20;;;;;;5113062;28;20040;-72
2023/04/19 12:18:47;;;;;;;2.55;1.23;;;20.90;44.20;;;;;;5112150;28;20047;-71
2023/04/19 12:21:30;;;;;;;2.75;1.10;;;21.00;44.20;;;;;;5109417;28;20042;-72
2023/04/19 12:24:00;;;;;;;2.83;1.02;;;21.00;44.20;;;;;;5089906;28;20076;-72
2023/04/19 12:26:27;;;;;;;2.65;1.10;;;20.90;44.10;;;;;;5088289;28;20048;-71
2023/04/19 12:28:56;;;;;;;2.60;1.10;;;21.00;44.20;;;;;;5091960;28;20100;-73
2023/04/19 12:31:21;;;;;;;1.98;1.00;;;21.00;44.20;;;;;;5093095;28;20036;-72
2023/04/19 12:33:47;;;;;;;4.10;1.10;;;21.00;44.10;;;;;;5091727;28;20056;-72
2023/04/19 12:36:13;;;;;;;2.78;0.90;;;21.00;44.00;;;;;;5104450;28;20043;-72
2023/04/19 12:38:39;;;;;;;4.22;1.27;;;21.00;44.00;;;;;;5111899;28;20050;-72
2023/04/19 12:41:05;;;;;;;5.97;1.20;;;21.00;44.00;;;;;;5112968;28;20502;-73
2023/04/19 12:43:31;;;;;;;1.50;0.77;;;21.00;44.00;;;;;;5112649;28;20144;-73
2023/04/19 12:45:57;;;;;;;2.38;1.00;;;21.00;44.10;;;;;;5111305;28;20053;-72
2023/04/19 12:48:23;;;;;;;3.50;1.15;;;21.00;44.10;;;;;;5110936;28;20043;-73